sensor_id;sensor_type;location;lat;lon;timestamp;temperature;humidity
52879;DHT22;38747;53.140;6.498;2023-07-24T00:00:32;16.50;99.90
52879;DHT22;38747;53.140;6.498;2023-07-24T00:02:59;16.50;99.90
52879;DHT22;38747;53.140;6.498;2023-07-24T00:05:25;16.50;99.90
52879;DHT22;38747;53.140;6.498;2023-07-24T00:07:50;16.50;99.90
52879;DHT22;38747;53.140;6.498;2023-07-24T00:10:16;16.50;99.90
52879;DHT22;38747;53.140;6.498;2023-07-24T00:12:42;16.40;99.90
52879;DHT22;38747;53.140;6.498;2023-07-24T00:15:07;16.50;99.90
52879;DHT22;38747;53.140;6.498;2023-07-24T00:17:33;16.40;99.90
52879;DHT22;38747;53.140;6.498;2023-07-24T00:19:59;16.50;99.90
52879;DHT22;38747;53.140;6.498;2023-07-24T00:22:24;16.40;99.90
52879;DHT22;38747;53.140;6.498;2023-07-24T00:24:50;16.40;99.90
52879;DHT22;38747;53.140;6.498;2023-07-24T00:27:16;16.40;99.90
52879;DHT22;38747;53.140;6.498;2023-07-24T00:29:41;16.40;99.90
52879;DHT22;38747;53.140;6.498;2023-07-24T00:32:07;16.30;99.90
52879;DHT22;38747;53.140;6.498;2023-07-24T00:34:33;16.40;99.90
52879;DHT22;38747;53.140;6.498;2023-07-24T00:36:59;16.30;99.90
52879;DHT22;38747;53.140;6.498;2023-07-24T00:39:24;16.30;99.90
52879;DHT22;38747;53.140;6.498;2023-07-24T00:41:53;16.20;99.90
52879;DHT22;38747;53.140;6.498;2023-07-24T00:44:19;16.20;99.90
52879;DHT22;38747;53.140;6.498;2023-07-24T00:46:45;16.20;99.90
52879;DHT22;38747;53.140;6.498;2023-07-24T00:49:11;16.30;99.90
52879;DHT22;38747;53.140;6.498;2023-07-24T00:51:36;16.30;99.90
52879;DHT22;38747;53.140;6.498;2023-07-24T00:54:03;16.30;99.90
52879;DHT22;38747;53.140;6.498;2023-07-24T00:56:30;16.30;99.90
52879;DHT22;38747;53.140;6.498;2023-07-24T00:58:56;16.40;99.90
52879;DHT22;38747;53.140;6.498;2023-07-24T01:01:23;16.30;99.90
52879;DHT22;38747;53.140;6.498;2023-07-24T01:03:49;16.30;99.90
52879;DHT22;38747;53.140;6.498;2023-07-24T01:06:15;16.30;99.90
52879;DHT22;38747;53.140;6.498;2023-07-24T01:08:40;16.30;99.90
52879;DHT22;38747;53.140;6.498;2023-07-24T01:13:41;16.20;99.90
52879;DHT22;38747;53.140;6.498;2023-07-24T01:16:14;16.20;99.90
52879;DHT22;38747;53.140;6.498;2023-07-24T01:18:45;16.20;99.90
52879;DHT22;38747;53.140;6.498;2023-07-24T01:21:12;16.10;99.90
52879;DHT22;38747;53.140;6.498;2023-07-24T01:26:24;16.10;99.90
52879;DHT22;38747;53.140;6.498;2023-07-24T01:28:49;16.00;99.90
52879;DHT22;38747;53.140;6.498;2023-07-24T01:31:15;16.00;99.90
52879;DHT22;38747;53.140;6.498;2023-07-24T01:33:45;16.00;99.90
52879;DHT22;38747;53.140;6.498;2023-07-24T01:36:11;16.00;99.90
52879;DHT22;38747;53.140;6.498;2023-07-24T01:38:38;16.00;99.90
52879;DHT22;38747;53.140;6.498;2023-07-24T01:41:04;16.00;99.90
52879;DHT22;38747;53.140;6.498;2023-07-24T01:43:30;15.90;99.90
52879;DHT22;38747;53.140;6.498;2023-07-24T01:45:58;16.00;99.90
52879;DHT22;38747;53.140;6.498;2023-07-24T01:48:23;15.90;99.90
52879;DHT22;38747;53.140;6.498;2023-07-24T01:50:49;15.90;99.90
52879;DHT22;38747;53.140;6.498;2023-07-24T01:53:15;15.90;99.90
52879;DHT22;38747;53.140;6.498;2023-07-24T01:55:41;15.90;99.90
52879;DHT22;38747;53.140;6.498;2023-07-24T01:58:07;15.90;99.90
52879;DHT22;38747;53.140;6.498;2023-07-24T02:00:32;16.00;99.90
52879;DHT22;38747;53.140;6.498;2023-07-24T02:02:58;16.00;99.90
52879;DHT22;38747;53.140;6.498;2023-07-24T02:05:24;15.90;99.90
52879;DHT22;38747;53.140;6.498;2023-07-24T02:07:49;16.00;99.90
52879;DHT22;38747;53.140;6.498;2023-07-24T02:10:15;15.90;99.90
52879;DHT22;38747;53.140;6.498;2023-07-24T02:12:41;15.90;99.90
52879;DHT22;38747;53.140;6.498;2023-07-24T02:15:07;15.90;99.90
52879;DHT22;38747;53.140;6.498;2023-07-24T02:17:32;15.90;99.90
52879;DHT22;38747;53.140;6.498;2023-07-24T02:19:58;16.00;99.90
52879;DHT22;38747;53.140;6.498;2023-07-24T02:22:24;15.90;99.90
52879;DHT22;38747;53.140;6.498;2023-07-24T02:24:50;15.90;99.90
52879;DHT22;38747;53.140;6.498;2023-07-24T02:27:32;15.90;99.90
52879;DHT22;38747;53.140;6.498;2023-07-24T02:30:00;16.00;99.90
52879;DHT22;38747;53.140;6.498;2023-07-24T02:32:26;16.00;99.90
52879;DHT22;38747;53.140;6.498;2023-07-24T02:34:52;16.00;99.90
52879;DHT22;38747;53.140;6.498;2023-07-24T02:37:18;16.00;99.90
52879;DHT22;38747;53.140;6.498;2023-07-24T02:39:44;16.00;99.90
52879;DHT22;38747;53.140;6.498;2023-07-24T02:42:10;16.00;99.90
52879;DHT22;38747;53.140;6.498;2023-07-24T02:44:35;16.00;99.90
52879;DHT22;38747;53.140;6.498;2023-07-24T02:47:01;16.00;99.90
52879;DHT22;38747;53.140;6.498;2023-07-24T02:49:28;16.00;99.90
52879;DHT22;38747;53.140;6.498;2023-07-24T02:51:53;16.00;99.90
52879;DHT22;38747;53.140;6.498;2023-07-24T02:54:19;16.00;99.90
52879;DHT22;38747;53.140;6.498;2023-07-24T02:56:45;16.10;99.90
52879;DHT22;38747;53.140;6.498;2023-07-24T02:59:10;16.10;99.90
52879;DHT22;38747;53.140;6.498;2023-07-24T03:01:37;16.10;99.90
52879;DHT22;38747;53.140;6.498;2023-07-24T03:04:02;16.10;99.90
52879;DHT22;38747;53.140;6.498;2023-07-24T03:06:30;16.20;99.90
52879;DHT22;38747;53.140;6.498;2023-07-24T03:08:56;16.20;99.90
52879;DHT22;38747;53.140;6.498;2023-07-24T03:11:22;16.10;99.90
52879;DHT22;38747;53.140;6.498;2023-07-24T03:13:48;16.20;99.90
52879;DHT22;38747;53.140;6.498;2023-07-24T03:16:13;16.20;99.90
52879;DHT22;38747;53.140;6.498;2023-07-24T03:18:39;16.20;99.90
52879;DHT22;38747;53.140;6.498;2023-07-24T03:21:05;16.30;99.90
52879;DHT22;38747;53.140;6.498;2023-07-24T03:23:30;16.20;99.90
52879;DHT22;38747;53.140;6.498;2023-07-24T03:25:59;16.30;99.90
52879;DHT22;38747;53.140;6.498;2023-07-24T03:28:24;16.30;99.90
52879;DHT22;38747;53.140;6.498;2023-07-24T03:30:50;16.30;99.90
52879;DHT22;38747;53.140;6.498;2023-07-24T03:33:16;16.30;99.90
52879;DHT22;38747;53.140;6.498;2023-07-24T03:35:42;16.30;99.90
52879;DHT22;38747;53.140;6.498;2023-07-24T03:38:07;16.30;99.90
52879;DHT22;38747;53.140;6.498;2023-07-24T03:40:33;16.30;99.90
52879;DHT22;38747;53.140;6.498;2023-07-24T03:42:59;16.30;99.90
52879;DHT22;38747;53.140;6.498;2023-07-24T03:45:24;16.30;99.90
52879;DHT22;38747;53.140;6.498;2023-07-24T03:47:50;16.30;99.90
52879;DHT22;38747;53.140;6.498;2023-07-24T03:50:16;16.30;99.90
52879;DHT22;38747;53.140;6.498;2023-07-24T03:52:42;16.30;99.90
52879;DHT22;38747;53.140;6.498;2023-07-24T03:55:07;16.30;99.90
52879;DHT22;38747;53.140;6.498;2023-07-24T03:57:33;16.30;99.90
52879;DHT22;38747;53.140;6.498;2023-07-24T03:59:59;16.30;99.90
52879;DHT22;38747;53.140;6.498;2023-07-24T04:02:25;16.30;99.90
52879;DHT22;38747;53.140;6.498;2023-07-24T04:04:51;16.30;99.90
52879;DHT22;38747;53.140;6.498;2023-07-24T04:07:16;16.30;99.90
52879;DHT22;38747;53.140;6.498;2023-07-24T04:09:42;16.40;99.90
52879;DHT22;38747;53.140;6.498;2023-07-24T04:12:07;16.30;99.90
52879;DHT22;38747;53.140;6.498;2023-07-24T04:14:33;16.30;99.90
52879;DHT22;38747;53.140;6.498;2023-07-24T04:17:02;16.40;99.90
52879;DHT22;38747;53.140;6.498;2023-07-24T04:19:27;16.40;99.90
52879;DHT22;38747;53.140;6.498;2023-07-24T04:21:53;16.40;99.90
52879;DHT22;38747;53.140;6.498;2023-07-24T04:24:18;16.40;99.90
52879;DHT22;38747;53.140;6.498;2023-07-24T04:26:44;16.40;99.90
52879;DHT22;38747;53.140;6.498;2023-07-24T04:29:10;16.40;99.90
52879;DHT22;38747;53.140;6.498;2023-07-24T04:31:35;16.40;99.90
52879;DHT22;38747;53.140;6.498;2023-07-24T04:34:01;16.40;99.90
52879;DHT22;38747;53.140;6.498;2023-07-24T04:36:27;16.50;99.90
52879;DHT22;38747;53.140;6.498;2023-07-24T04:38:55;16.40;99.90
52879;DHT22;38747;53.140;6.498;2023-07-24T04:41:21;16.50;99.90
52879;DHT22;38747;53.140;6.498;2023-07-24T04:43:46;16.50;99.90
52879;DHT22;38747;53.140;6.498;2023-07-24T04:46:12;16.50;99.90
52879;DHT22;38747;53.140;6.498;2023-07-24T04:48:37;16.50;99.90
52879;DHT22;38747;53.140;6.498;2023-07-24T04:51:03;16.50;99.90
52879;DHT22;38747;53.140;6.498;2023-07-24T04:53:29;16.60;99.90
52879;DHT22;38747;53.140;6.498;2023-07-24T04:55:54;16.60;99.90
52879;DHT22;38747;53.140;6.498;2023-07-24T04:58:20;16.60;99.90
52879;DHT22;38747;53.140;6.498;2023-07-24T05:00:45;16.50;99.90
52879;DHT22;38747;53.140;6.498;2023-07-24T05:03:11;16.60;99.90
52879;DHT22;38747;53.140;6.498;2023-07-24T05:05:37;16.60;99.90
52879;DHT22;38747;53.140;6.498;2023-07-24T05:08:04;16.60;99.90
52879;DHT22;38747;53.140;6.498;2023-07-24T05:10:34;16.70;99.90
52879;DHT22;38747;53.140;6.498;2023-07-24T05:12:59;16.60;99.90
52879;DHT22;38747;53.140;6.498;2023-07-24T05:15:26;16.60;99.90
52879;DHT22;38747;53.140;6.498;2023-07-24T05:17:52;16.70;99.90
52879;DHT22;38747;53.140;6.498;2023-07-24T05:20:17;16.70;99.90
52879;DHT22;38747;53.140;6.498;2023-07-24T05:22:43;16.70;99.90
52879;DHT22;38747;53.140;6.498;2023-07-24T05:25:08;16.70;99.90
52879;DHT22;38747;53.140;6.498;2023-07-24T05:27:34;16.70;99.90
52879;DHT22;38747;53.140;6.498;2023-07-24T05:30:01;16.80;99.90
52879;DHT22;38747;53.140;6.498;2023-07-24T05:32:26;16.90;99.90
52879;DHT22;38747;53.140;6.498;2023-07-24T05:34:52;16.90;99.90
52879;DHT22;38747;53.140;6.498;2023-07-24T05:37:17;16.90;99.90
52879;DHT22;38747;53.140;6.498;2023-07-24T05:39:43;16.90;99.90
52879;DHT22;38747;53.140;6.498;2023-07-24T05:42:09;17.00;99.90
52879;DHT22;38747;53.140;6.498;2023-07-24T05:44:35;17.00;99.90
52879;DHT22;38747;53.140;6.498;2023-07-24T05:47:02;17.00;99.90
52879;DHT22;38747;53.140;6.498;2023-07-24T05:49:28;17.00;99.90
52879;DHT22;38747;53.140;6.498;2023-07-24T05:51:54;17.00;99.90
52879;DHT22;38747;53.140;6.498;2023-07-24T05:54:20;17.10;99.90
52879;DHT22;38747;53.140;6.498;2023-07-24T05:56:45;17.10;99.90
52879;DHT22;38747;53.140;6.498;2023-07-24T05:59:11;17.00;99.90
52879;DHT22;38747;53.140;6.498;2023-07-24T06:01:37;17.00;99.90
52879;DHT22;38747;53.140;6.498;2023-07-24T06:04:02;17.10;99.90
52879;DHT22;38747;53.140;6.498;2023-07-24T06:06:28;17.10;99.90
52879;DHT22;38747;53.140;6.498;2023-07-24T06:08:54;17.00;99.90
52879;DHT22;38747;53.140;6.498;2023-07-24T06:11:19;17.00;99.90
52879;DHT22;38747;53.140;6.498;2023-07-24T06:13:45;17.00;99.90
52879;DHT22;38747;53.140;6.498;2023-07-24T06:16:10;17.00;99.90
52879;DHT22;38747;53.140;6.498;2023-07-24T06:18:38;17.10;99.90
52879;DHT22;38747;53.140;6.498;2023-07-24T06:21:03;17.20;99.90
52879;DHT22;38747;53.140;6.498;2023-07-24T06:23:29;17.30;99.90
52879;DHT22;38747;53.140;6.498;2023-07-24T06:25:55;17.40;99.90
52879;DHT22;38747;53.140;6.498;2023-07-24T06:28:21;17.40;99.90
52879;DHT22;38747;53.140;6.498;2023-07-24T06:30:46;17.40;99.90
52879;DHT22;38747;53.140;6.498;2023-07-24T06:33:12;17.50;99.90
52879;DHT22;38747;53.140;6.498;2023-07-24T06:35:38;17.50;99.90
52879;DHT22;38747;53.140;6.498;2023-07-24T06:38:03;17.60;99.90
52879;DHT22;38747;53.140;6.498;2023-07-24T06:40:29;17.60;99.90
52879;DHT22;38747;53.140;6.498;2023-07-24T06:42:55;17.60;99.90
52879;DHT22;38747;53.140;6.498;2023-07-24T06:45:20;17.60;99.90
52879;DHT22;38747;53.140;6.498;2023-07-24T06:47:46;17.70;99.90
52879;DHT22;38747;53.140;6.498;2023-07-24T06:50:11;17.70;99.90
52879;DHT22;38747;53.140;6.498;2023-07-24T06:52:37;17.70;99.90
52879;DHT22;38747;53.140;6.498;2023-07-24T06:55:03;17.70;99.90
52879;DHT22;38747;53.140;6.498;2023-07-24T06:57:29;17.80;99.90
52879;DHT22;38747;53.140;6.498;2023-07-24T06:59:54;17.80;99.90
52879;DHT22;38747;53.140;6.498;2023-07-24T07:02:20;17.80;99.90
52879;DHT22;38747;53.140;6.498;2023-07-24T07:04:46;17.90;99.90
52879;DHT22;38747;53.140;6.498;2023-07-24T07:07:11;17.90;99.90
52879;DHT22;38747;53.140;6.498;2023-07-24T07:09:37;18.00;99.90
52879;DHT22;38747;53.140;6.498;2023-07-24T07:12:03;18.00;99.90
52879;DHT22;38747;53.140;6.498;2023-07-24T07:14:28;18.00;99.90
52879;DHT22;38747;53.140;6.498;2023-07-24T07:16:54;18.00;99.90
52879;DHT22;38747;53.140;6.498;2023-07-24T07:19:19;18.10;99.90
52879;DHT22;38747;53.140;6.498;2023-07-24T07:21:45;18.10;99.90
52879;DHT22;38747;53.140;6.498;2023-07-24T07:24:11;18.10;99.90
52879;DHT22;38747;53.140;6.498;2023-07-24T07:26:36;18.20;99.90
52879;DHT22;38747;53.140;6.498;2023-07-24T07:29:03;18.20;99.90
52879;DHT22;38747;53.140;6.498;2023-07-24T07:31:31;18.20;99.90
52879;DHT22;38747;53.140;6.498;2023-07-24T07:33:57;18.20;99.90
52879;DHT22;38747;53.140;6.498;2023-07-24T07:36:23;18.30;99.90
52879;DHT22;38747;53.140;6.498;2023-07-24T07:38:49;18.30;99.90
52879;DHT22;38747;53.140;6.498;2023-07-24T07:41:14;18.30;99.90
52879;DHT22;38747;53.140;6.498;2023-07-24T07:43:40;18.40;99.90
52879;DHT22;38747;53.140;6.498;2023-07-24T07:46:05;18.40;99.90
52879;DHT22;38747;53.140;6.498;2023-07-24T07:48:31;18.40;99.90
52879;DHT22;38747;53.140;6.498;2023-07-24T07:50:58;18.50;99.90
52879;DHT22;38747;53.140;6.498;2023-07-24T07:53:23;18.50;99.90
52879;DHT22;38747;53.140;6.498;2023-07-24T07:55:56;18.50;99.90
52879;DHT22;38747;53.140;6.498;2023-07-24T07:58:23;18.50;99.90
52879;DHT22;38747;53.140;6.498;2023-07-24T08:00:48;18.60;99.90
52879;DHT22;38747;53.140;6.498;2023-07-24T08:03:14;18.60;99.90
52879;DHT22;38747;53.140;6.498;2023-07-24T08:05:39;18.70;99.90
52879;DHT22;38747;53.140;6.498;2023-07-24T08:08:05;18.70;99.90
52879;DHT22;38747;53.140;6.498;2023-07-24T08:10:31;18.80;99.90
52879;DHT22;38747;53.140;6.498;2023-07-24T08:12:56;18.90;99.90
52879;DHT22;38747;53.140;6.498;2023-07-24T08:15:22;19.00;99.90
52879;DHT22;38747;53.140;6.498;2023-07-24T08:17:48;19.10;99.90
52879;DHT22;38747;53.140;6.498;2023-07-24T08:20:13;19.10;99.90
52879;DHT22;38747;53.140;6.498;2023-07-24T08:22:39;19.10;99.90
52879;DHT22;38747;53.140;6.498;2023-07-24T08:25:05;19.20;99.90
52879;DHT22;38747;53.140;6.498;2023-07-24T08:27:30;19.20;99.90
52879;DHT22;38747;53.140;6.498;2023-07-24T08:29:57;19.20;99.90
52879;DHT22;38747;53.140;6.498;2023-07-24T08:32:22;19.20;99.90
52879;DHT22;38747;53.140;6.498;2023-07-24T08:34:48;19.30;99.90
52879;DHT22;38747;53.140;6.498;2023-07-24T08:37:14;19.20;99.90
52879;DHT22;38747;53.140;6.498;2023-07-24T08:39:39;19.30;99.90
52879;DHT22;38747;53.140;6.498;2023-07-24T08:42:12;19.30;99.90
52879;DHT22;38747;53.140;6.498;2023-07-24T08:44:38;19.30;99.90
52879;DHT22;38747;53.140;6.498;2023-07-24T08:47:04;19.20;99.90
52879;DHT22;38747;53.140;6.498;2023-07-24T08:49:32;19.20;99.90
52879;DHT22;38747;53.140;6.498;2023-07-24T08:51:59;19.20;99.90
52879;DHT22;38747;53.140;6.498;2023-07-24T08:54:26;19.20;99.90
52879;DHT22;38747;53.140;6.498;2023-07-24T08:56:52;19.30;99.90
52879;DHT22;38747;53.140;6.498;2023-07-24T08:59:18;19.40;99.90
52879;DHT22;38747;53.140;6.498;2023-07-24T09:01:44;19.40;99.90
52879;DHT22;38747;53.140;6.498;2023-07-24T09:04:09;19.50;99.90
52879;DHT22;38747;53.140;6.498;2023-07-24T09:06:36;19.50;99.90
52879;DHT22;38747;53.140;6.498;2023-07-24T09:09:02;19.50;99.90
52879;DHT22;38747;53.140;6.498;2023-07-24T09:11:28;19.50;99.90
52879;DHT22;38747;53.140;6.498;2023-07-24T09:13:54;19.40;99.90
52879;DHT22;38747;53.140;6.498;2023-07-24T09:16:24;19.50;99.90
52879;DHT22;38747;53.140;6.498;2023-07-24T09:18:51;19.60;99.90
52879;DHT22;38747;53.140;6.498;2023-07-24T09:21:27;19.70;99.90
52879;DHT22;38747;53.140;6.498;2023-07-24T09:23:54;20.10;99.90
52879;DHT22;38747;53.140;6.498;2023-07-24T09:26:19;20.50;99.90
52879;DHT22;38747;53.140;6.498;2023-07-24T09:28:52;20.60;99.90
52879;DHT22;38747;53.140;6.498;2023-07-24T09:31:18;20.60;99.90
52879;DHT22;38747;53.140;6.498;2023-07-24T09:33:44;20.40;99.90
52879;DHT22;38747;53.140;6.498;2023-07-24T09:36:10;20.30;99.90
52879;DHT22;38747;53.140;6.498;2023-07-24T09:38:37;20.30;99.90
52879;DHT22;38747;53.140;6.498;2023-07-24T09:41:03;20.60;99.90
52879;DHT22;38747;53.140;6.498;2023-07-24T09:43:29;20.90;99.90
52879;DHT22;38747;53.140;6.498;2023-07-24T09:45:56;21.30;99.90
52879;DHT22;38747;53.140;6.498;2023-07-24T09:48:26;21.40;99.90
52879;DHT22;38747;53.140;6.498;2023-07-24T09:50:56;21.50;99.90
52879;DHT22;38747;53.140;6.498;2023-07-24T09:53:52;21.40;99.90
52879;DHT22;38747;53.140;6.498;2023-07-24T09:56:20;21.40;99.90
52879;DHT22;38747;53.140;6.498;2023-07-24T09:58:47;21.30;99.90
52879;DHT22;38747;53.140;6.498;2023-07-24T10:01:15;21.50;99.90
52879;DHT22;38747;53.140;6.498;2023-07-24T10:03:47;21.70;99.90
52879;DHT22;38747;53.140;6.498;2023-07-24T10:06:13;21.80;99.90
52879;DHT22;38747;53.140;6.498;2023-07-24T10:08:40;21.90;99.90
52879;DHT22;38747;53.140;6.498;2023-07-24T10:11:11;21.90;99.90
52879;DHT22;38747;53.140;6.498;2023-07-24T10:13:37;22.00;99.90
52879;DHT22;38747;53.140;6.498;2023-07-24T10:16:04;22.20;99.90
52879;DHT22;38747;53.140;6.498;2023-07-24T10:18:33;22.40;99.90
52879;DHT22;38747;53.140;6.498;2023-07-24T10:21:06;22.60;99.90
52879;DHT22;38747;53.140;6.498;2023-07-24T10:23:36;22.90;99.90
52879;DHT22;38747;53.140;6.498;2023-07-24T10:26:06;23.00;99.90
52879;DHT22;38747;53.140;6.498;2023-07-24T10:28:41;23.00;99.90
52879;DHT22;38747;53.140;6.498;2023-07-24T10:31:24;22.80;99.90
52879;DHT22;38747;53.140;6.498;2023-07-24T10:33:53;22.70;99.90
52879;DHT22;38747;53.140;6.498;2023-07-24T10:36:21;22.70;99.90
52879;DHT22;38747;53.140;6.498;2023-07-24T10:38:53;22.80;99.90
52879;DHT22;38747;53.140;6.498;2023-07-24T10:41:19;23.10;99.90
52879;DHT22;38747;53.140;6.498;2023-07-24T10:43:47;23.30;99.90
52879;DHT22;38747;53.140;6.498;2023-07-24T10:46:13;23.30;99.90
52879;DHT22;38747;53.140;6.498;2023-07-24T10:48:47;23.20;99.90
52879;DHT22;38747;53.140;6.498;2023-07-24T10:51:13;23.10;99.90
52879;DHT22;38747;53.140;6.498;2023-07-24T10:53:47;23.00;99.90
52879;DHT22;38747;53.140;6.498;2023-07-24T10:56:14;22.90;99.90
52879;DHT22;38747;53.140;6.498;2023-07-24T10:58:40;22.70;99.90
52879;DHT22;38747;53.140;6.498;2023-07-24T11:01:07;22.70;99.90
52879;DHT22;38747;53.140;6.498;2023-07-24T11:03:35;22.90;99.90
52879;DHT22;38747;53.140;6.498;2023-07-24T11:06:02;23.20;99.90
52879;DHT22;38747;53.140;6.498;2023-07-24T11:08:28;23.50;99.90
52879;DHT22;38747;53.140;6.498;2023-07-24T11:10:58;23.70;99.90
52879;DHT22;38747;53.140;6.498;2023-07-24T11:13:27;24.00;99.90
52879;DHT22;38747;53.140;6.498;2023-07-24T11:15:54;24.10;99.90
52879;DHT22;38747;53.140;6.498;2023-07-24T11:18:21;24.10;99.90
52879;DHT22;38747;53.140;6.498;2023-07-24T11:20:51;23.90;99.90
52879;DHT22;38747;53.140;6.498;2023-07-24T11:23:17;23.70;99.90
52879;DHT22;38747;53.140;6.498;2023-07-24T11:25:44;23.60;99.90
52879;DHT22;38747;53.140;6.498;2023-07-24T11:28:11;23.20;99.90
52879;DHT22;38747;53.140;6.498;2023-07-24T11:30:37;22.90;99.90
52879;DHT22;38747;53.140;6.498;2023-07-24T11:33:05;22.80;99.90
52879;DHT22;38747;53.140;6.498;2023-07-24T11:35:31;22.70;99.90
52879;DHT22;38747;53.140;6.498;2023-07-24T11:37:57;22.60;99.90
52879;DHT22;38747;53.140;6.498;2023-07-24T11:40:31;22.60;99.90
52879;DHT22;38747;53.140;6.498;2023-07-24T11:42:57;22.50;99.90
52879;DHT22;38747;53.140;6.498;2023-07-24T11:45:23;22.40;99.90
52879;DHT22;38747;53.140;6.498;2023-07-24T11:47:50;22.50;99.90
52879;DHT22;38747;53.140;6.498;2023-07-24T11:50:16;22.60;99.90
52879;DHT22;38747;53.140;6.498;2023-07-24T11:52:44;23.10;99.90
52879;DHT22;38747;53.140;6.498;2023-07-24T11:55:11;23.30;99.90
52879;DHT22;38747;53.140;6.498;2023-07-24T11:57:37;23.50;99.90
52879;DHT22;38747;53.140;6.498;2023-07-24T12:00:04;23.70;99.90
52879;DHT22;38747;53.140;6.498;2023-07-24T12:02:32;23.70;99.90
52879;DHT22;38747;53.140;6.498;2023-07-24T12:04:59;23.50;99.90
52879;DHT22;38747;53.140;6.498;2023-07-24T12:07:32;23.20;99.90
52879;DHT22;38747;53.140;6.498;2023-07-24T12:10:03;23.00;99.90
52879;DHT22;38747;53.140;6.498;2023-07-24T12:12:45;22.90;99.90
52879;DHT22;38747;53.140;6.498;2023-07-24T12:15:12;22.70;99.90
52879;DHT22;38747;53.140;6.498;2023-07-24T12:17:38;22.50;99.90
52879;DHT22;38747;53.140;6.498;2023-07-24T12:20:05;22.30;99.90
52879;DHT22;38747;53.140;6.498;2023-07-24T12:22:32;22.20;99.90
52879;DHT22;38747;53.140;6.498;2023-07-24T12:24:57;22.10;99.90
52879;DHT22;38747;53.140;6.498;2023-07-24T12:27:24;21.90;99.90
52879;DHT22;38747;53.140;6.498;2023-07-24T12:29:53;21.80;99.90
52879;DHT22;38747;53.140;6.498;2023-07-24T12:32:18;21.70;99.90
52879;DHT22;38747;53.140;6.498;2023-07-24T12:34:49;21.50;99.90
52879;DHT22;38747;53.140;6.498;2023-07-24T12:37:15;21.30;99.90
52879;DHT22;38747;53.140;6.498;2023-07-24T12:39:41;21.10;99.90
52879;DHT22;38747;53.140;6.498;2023-07-24T12:42:06;20.90;99.90
52879;DHT22;38747;53.140;6.498;2023-07-24T12:44:32;20.80;99.90
52879;DHT22;38747;53.140;6.498;2023-07-24T12:46:58;20.40;99.90
52879;DHT22;38747;53.140;6.498;2023-07-24T12:49:24;20.20;99.90
52879;DHT22;38747;53.140;6.498;2023-07-24T12:51:49;20.00;99.90
52879;DHT22;38747;53.140;6.498;2023-07-24T12:54:16;19.80;99.90
52879;DHT22;38747;53.140;6.498;2023-07-24T12:56:42;19.60;99.90
52879;DHT22;38747;53.140;6.498;2023-07-24T12:59:08;19.40;99.90
52879;DHT22;38747;53.140;6.498;2023-07-24T13:01:33;19.40;99.90
52879;DHT22;38747;53.140;6.498;2023-07-24T13:03:59;19.40;99.90
52879;DHT22;38747;53.140;6.498;2023-07-24T13:06:25;19.40;99.90
52879;DHT22;38747;53.140;6.498;2023-07-24T13:08:50;19.40;99.90
52879;DHT22;38747;53.140;6.498;2023-07-24T13:11:16;19.50;99.90
52879;DHT22;38747;53.140;6.498;2023-07-24T13:13:41;19.50;99.90
52879;DHT22;38747;53.140;6.498;2023-07-24T13:16:07;19.60;99.90
52879;DHT22;38747;53.140;6.498;2023-07-24T13:18:33;19.70;99.90
52879;DHT22;38747;53.140;6.498;2023-07-24T13:20:58;19.80;99.90
52879;DHT22;38747;53.140;6.498;2023-07-24T13:23:24;20.10;99.90
52879;DHT22;38747;53.140;6.498;2023-07-24T13:25:52;20.60;99.90
52879;DHT22;38747;53.140;6.498;2023-07-24T13:28:18;21.10;99.90
52879;DHT22;38747;53.140;6.498;2023-07-24T13:30:44;21.50;99.90
52879;DHT22;38747;53.140;6.498;2023-07-24T13:33:10;21.70;99.90
52879;DHT22;38747;53.140;6.498;2023-07-24T13:35:35;21.70;99.90
52879;DHT22;38747;53.140;6.498;2023-07-24T13:38:01;21.80;99.90
52879;DHT22;38747;53.140;6.498;2023-07-24T13:40:27;22.10;99.90
52879;DHT22;38747;53.140;6.498;2023-07-24T13:42:52;22.20;99.90
52879;DHT22;38747;53.140;6.498;2023-07-24T13:45:18;21.90;99.90
52879;DHT22;38747;53.140;6.498;2023-07-24T13:47:43;21.70;99.90
52879;DHT22;38747;53.140;6.498;2023-07-24T13:50:09;21.40;99.90
52879;DHT22;38747;53.140;6.498;2023-07-24T13:52:35;21.10;99.90
52879;DHT22;38747;53.140;6.498;2023-07-24T13:55:01;20.90;99.90
52879;DHT22;38747;53.140;6.498;2023-07-24T13:57:27;20.80;99.90
52879;DHT22;38747;53.140;6.498;2023-07-24T13:59:52;20.70;99.90
52879;DHT22;38747;53.140;6.498;2023-07-24T14:02:18;20.60;99.90
52879;DHT22;38747;53.140;6.498;2023-07-24T14:04:44;20.40;99.90
52879;DHT22;38747;53.140;6.498;2023-07-24T14:07:10;20.20;99.90
52879;DHT22;38747;53.140;6.498;2023-07-24T14:09:38;20.00;99.90
52879;DHT22;38747;53.140;6.498;2023-07-24T14:12:04;19.80;99.90
52879;DHT22;38747;53.140;6.498;2023-07-24T14:14:29;19.60;99.90
52879;DHT22;38747;53.140;6.498;2023-07-24T14:16:55;19.30;99.90
52879;DHT22;38747;53.140;6.498;2023-07-24T14:19:21;19.30;99.90
52879;DHT22;38747;53.140;6.498;2023-07-24T14:21:49;19.40;99.90
52879;DHT22;38747;53.140;6.498;2023-07-24T14:24:15;19.60;99.90
52879;DHT22;38747;53.140;6.498;2023-07-24T14:26:41;19.70;99.90
52879;DHT22;38747;53.140;6.498;2023-07-24T14:29:06;19.40;99.90
52879;DHT22;38747;53.140;6.498;2023-07-24T14:31:32;19.10;99.90
52879;DHT22;38747;53.140;6.498;2023-07-24T14:33:58;18.80;99.90
52879;DHT22;38747;53.140;6.498;2023-07-24T14:36:23;18.80;99.90
52879;DHT22;38747;53.140;6.498;2023-07-24T14:38:49;18.60;99.90
52879;DHT22;38747;53.140;6.498;2023-07-24T14:41:16;18.50;99.90
52879;DHT22;38747;53.140;6.498;2023-07-24T14:43:42;18.30;99.90
52879;DHT22;38747;53.140;6.498;2023-07-24T14:46:07;18.10;99.90
52879;DHT22;38747;53.140;6.498;2023-07-24T14:48:33;18.20;99.90
52879;DHT22;38747;53.140;6.498;2023-07-24T14:50:59;18.40;99.90
52879;DHT22;38747;53.140;6.498;2023-07-24T14:53:25;18.40;99.90
52879;DHT22;38747;53.140;6.498;2023-07-24T14:55:50;18.30;99.90
52879;DHT22;38747;53.140;6.498;2023-07-24T14:58:16;18.50;99.90
52879;DHT22;38747;53.140;6.498;2023-07-24T15:00:41;18.50;99.90
52879;DHT22;38747;53.140;6.498;2023-07-24T15:03:07;18.30;99.90
52879;DHT22;38747;53.140;6.498;2023-07-24T15:05:33;18.40;99.90
52879;DHT22;38747;53.140;6.498;2023-07-24T15:07:58;18.10;99.90
52879;DHT22;38747;53.140;6.498;2023-07-24T15:10:24;18.10;99.90
52879;DHT22;38747;53.140;6.498;2023-07-24T15:12:50;18.00;99.90
52879;DHT22;38747;53.140;6.498;2023-07-24T15:15:15;18.10;99.90
52879;DHT22;38747;53.140;6.498;2023-07-24T15:17:41;18.20;99.90
52879;DHT22;38747;53.140;6.498;2023-07-24T15:20:07;18.40;99.90
52879;DHT22;38747;53.140;6.498;2023-07-24T15:22:34;18.40;99.90
52879;DHT22;38747;53.140;6.498;2023-07-24T15:24:59;18.40;99.90
52879;DHT22;38747;53.140;6.498;2023-07-24T15:27:25;18.30;99.90
52879;DHT22;38747;53.140;6.498;2023-07-24T15:29:51;18.30;99.90